Ekofisk, Norvegia

06:42 PM CET die 10o February, anno 2016 (GMT +0100)
Ekofisk | | Change Station
CLOSE
Current Station
Airport
Location: Ekofisk,
Elevation: 10 ft
Nearby Weather Stations

Elev 10 ft 56.55 °N, 3.25 °E | Updated 22 minutes ago

Light Rain Showers
Pluvia Cadens Levis
43 °F
Feels Like 35 °F
N
17
Ventus Variabilis Ventus from Zephyrus

Hodie
High -- | Low -- °F
--% Chance of Precip.
Yesterday
High -- | Low -- °F
Precip. -- in
Pressio 29.21 in
Visibilitas 6.2 milia passuum
Clouds Few 1500 ft
Plerumque Nubila 3000 ft
Frigus Venti 35 °F
Frigus in quo Ros apparet 36 °F
Umor 76%
Rainfall 0.00 in
Snow Depth Not available.
8:26 AM 5:36 PM
Waxing Crescent, 6% visible
METAR ENEK 101720Z 28015KT 9999 -SHRA FEW015TCU BKN030 06/02 Q0989 W07/S4
Pressio 29.21 in
Visibilitas 6.2 milia passuum
Clouds Few 1500 ft
Plerumque Nubila 3000 ft
Frigus Venti 35 °F
Frigus in quo Ros apparet 36 °F
Umor 76%
Rainfall 0.00 in
Snow Depth Not available.
8:26 AM 5:36 PM
Waxing Crescent, 6% visible
METAR ENEK 101720Z 28015KT 9999 -SHRA FEW015TCU BKN030 06/02 Q0989 W07/S4

10-Day Weather Forecast

Almanac

Astronomy

Feb. 10, 2016 Rise Set
Actual Time
Civil Twilight
Nautical Twilight
Astronomical Twilight
Moon
Length Of Visible Light
Length of Day
Tomorrow will be .
, % of the Moon is Illuminated

Today's Extremes

Country Highs Country Lows

Community

WunderPhotos

Upload Photos

1,891,899 photos uploaded!

WunderBlog® & News

Nearby

Air Quality

  Air Quality AQ Index Pollutant
Not available.

Snow Depth

Station Depth Elevation

Earthquake Activity

City Distance Mag. Time & Date
Minimum magnitude displayed is 2.5.

Coastal Water Temperatures

Locus Calor

Stations

Nearby Weather Stations

Station Location Temp Frigus Venti Frigus in quo Ros apparet Umor Ventus Precip. Elev Renovata Type